Aviation Digital Data Service (ADDS)

Output produced by METARs form (0845 UTC 26 September 2016)
found at http://aviationweather.gov/adds/metars/
 
KGSO 260520Z 2606/2706 13005KT 6SM BR OVC007 
     TEMPO 2609/2613 3SM BR OVC004 
     FM261800 18007KT P6SM BKN015 
     FM262100 19006KT P6SM OVC035 
     PROB30 2621/2624 P6SM -TSRA OVC025CB 
     FM270000 18008KT 5SM SHRA BKN035